createdAt,value
2022-09-05T04:54:06.535Z,18.50
2022-09-05T05:04:38.154Z,18.50
2022-09-05T05:06:17.110Z,18.50
2022-09-05T05:10:55.393Z,18.50
2022-09-05T05:18:09.262Z,18.50
2022-09-05T05:21:12.399Z,18.50
2022-09-05T05:26:40.695Z,18.50
2022-09-05T05:31:51.249Z,18.50
2022-09-05T05:37:05.207Z,18.50
2022-09-05T05:42:20.783Z,18.50
2022-09-05T05:47:32.000Z,18.50
2022-09-05T05:52:49.422Z,18.50
2022-09-05T05:57:57.392Z,18.50
2022-09-05T06:03:27.002Z,18.50
2022-09-05T06:13:04.928Z,18.50
2022-09-05T06:22:08.805Z,18.60
2022-09-05T06:26:58.340Z,18.60
2022-09-05T06:32:37.386Z,18.70
2022-09-05T06:37:47.213Z,18.80
2022-09-05T06:43:09.439Z,18.90
2022-09-05T06:48:35.247Z,19.00
2022-09-05T06:53:52.555Z,19.20
2022-09-05T06:59:25.330Z,19.30
2022-09-05T07:05:37.154Z,19.40
2022-09-05T07:10:39.015Z,19.50
2022-09-05T07:15:55.637Z,19.70
2022-09-05T07:21:16.815Z,19.80
2022-09-05T07:26:52.112Z,20.00
2022-09-05T07:31:47.606Z,20.20
2022-09-05T07:37:15.562Z,20.40
2022-09-05T07:42:23.678Z,20.60
2022-09-05T07:47:31.604Z,20.70
2022-09-05T07:56:47.634Z,20.90
2022-09-05T07:58:02.537Z,21.10
2022-09-05T08:03:21.798Z,21.30
2022-09-05T08:08:29.604Z,21.50
2022-09-05T08:13:42.644Z,21.80
2022-09-05T08:19:09.142Z,22.00
2022-09-05T08:24:38.117Z,22.20
2022-09-05T08:29:41.979Z,22.40
2022-09-05T08:34:51.205Z,22.60
2022-09-05T08:40:10.241Z,22.90
2022-09-05T08:46:47.587Z,23.10
2022-09-05T08:50:56.032Z,23.30
2022-09-05T08:56:23.415Z,23.60
2022-09-05T09:02:45.137Z,23.70
2022-09-05T09:08:09.754Z,23.90
2022-09-05T09:13:42.205Z,24.10
2022-09-05T09:18:50.148Z,24.30
2022-09-05T09:24:13.323Z,24.50
2022-09-05T09:29:18.252Z,24.80
2022-09-05T09:34:26.200Z,25.00
2022-09-05T09:39:56.716Z,25.20
2022-09-05T09:45:28.073Z,25.50
2022-09-05T09:50:58.910Z,25.90
2022-09-05T09:56:19.698Z,26.20
2022-09-05T10:01:54.501Z,26.50
2022-09-05T10:10:53.742Z,26.80
2022-09-05T10:13:21.343Z,27.20
2022-09-05T10:18:25.850Z,27.50
2022-09-05T10:24:03.060Z,27.90
2022-09-05T10:29:34.981Z,28.20
2022-09-05T10:35:17.785Z,28.40
2022-09-05T10:40:11.774Z,28.70
2022-09-05T10:45:16.373Z,29.10
2022-09-05T10:50:32.223Z,29.30
2022-09-05T10:56:05.229Z,29.60
2022-09-05T11:02:23.487Z,29.90
2022-09-05T11:06:40.990Z,30.20
2022-09-05T11:11:47.782Z,30.50
2022-09-05T11:16:52.178Z,30.70
2022-09-05T11:22:22.188Z,31.00
2022-09-05T11:27:37.550Z,31.30
2022-09-05T11:39:50.313Z,31.70
2022-09-05T11:39:58.952Z,31.50
2022-09-05T11:44:59.802Z,31.80
2022-09-05T11:50:38.842Z,32.10
2022-09-05T11:56:18.327Z,32.40
2022-09-05T12:01:41.823Z,32.60
2022-09-05T12:07:24.102Z,32.90
2022-09-05T12:12:41.739Z,33.10
2022-09-05T12:17:50.900Z,33.30
2022-09-05T12:22:57.260Z,33.60
2022-09-05T12:29:28.087Z,33.70
2022-09-05T12:36:06.501Z,33.80
2022-09-05T12:40:55.637Z,33.90
2022-09-05T12:44:47.065Z,33.70
2022-09-05T12:50:14.306Z,33.90
2022-09-05T12:55:17.477Z,33.80
2022-09-05T13:03:05.045Z,33.80
2022-09-05T13:05:59.173Z,33.50
2022-09-05T13:14:49.645Z,33.20
2022-09-05T13:16:26.175Z,33.00
2022-09-05T13:21:29.974Z,33.10
2022-09-05T13:26:36.798Z,33.20
2022-09-05T13:37:56.359Z,33.30
2022-09-05T13:38:11.133Z,33.30
2022-09-05T13:42:44.699Z,33.40
2022-09-05T13:48:28.389Z,33.40
2022-09-05T13:53:44.007Z,33.30
2022-09-05T13:58:57.390Z,32.90
2022-09-05T14:04:00.238Z,32.70
2022-09-05T14:09:39.359Z,32.40
2022-09-05T14:15:10.145Z,32.30
2022-09-05T14:20:31.368Z,32.20
2022-09-05T14:25:39.474Z,32.20
2022-09-05T14:33:48.050Z,32.20
2022-09-05T14:37:51.226Z,32.40
2022-09-05T14:42:11.482Z,32.60
2022-09-05T14:47:36.386Z,32.70
2022-09-05T14:52:43.439Z,32.90
2022-09-05T15:02:42.924Z,32.70
2022-09-05T15:03:12.794Z,32.40
2022-09-05T15:12:14.875Z,32.20
2022-09-05T15:13:58.429Z,31.90
2022-09-05T15:19:01.499Z,31.70
2022-09-05T15:24:29.570Z,31.50
2022-09-05T15:29:34.359Z,31.40
2022-09-05T15:34:38.719Z,31.30
2022-09-05T15:39:40.929Z,31.30
2022-09-05T15:45:06.184Z,31.20
2022-09-05T15:50:21.804Z,31.10
2022-09-05T15:55:26.690Z,31.00
2022-09-05T16:00:45.319Z,30.90
2022-09-05T16:10:28.995Z,30.80
2022-09-05T16:12:06.230Z,30.70
2022-09-05T16:23:13.544Z,30.60
2022-09-05T16:23:30.261Z,30.40
2022-09-05T16:27:54.976Z,30.20
2022-09-05T16:33:05.021Z,30.00
2022-09-05T16:38:24.213Z,29.80
2022-09-05T16:43:45.802Z,29.60
2022-09-05T16:49:12.171Z,29.40
2022-09-05T16:54:41.573Z,29.30
2022-09-05T16:59:45.231Z,29.20
2022-09-05T17:05:08.090Z,29.10
2022-09-05T17:10:24.621Z,28.80
2022-09-05T17:15:35.237Z,28.40
2022-09-05T17:20:44.534Z,27.90
2022-09-05T17:29:44.621Z,27.60
2022-09-05T17:31:59.210Z,27.40
2022-09-05T17:37:30.287Z,27.30
2022-09-05T17:42:51.056Z,27.20
2022-09-05T17:47:55.721Z,26.90
2022-09-05T17:53:25.117Z,26.50
2022-09-05T17:58:49.039Z,25.80
2022-09-05T18:03:53.001Z,25.00
